Jay, Vermont
Current Conditions -  °F | °C
As of 5:55 PM on Thursday 18 Dec 2014 (Local Time) from KEFK Reporting Station
Overcast Overcast  
Wind Chill: 22°   Ceiling: 1300
Heat Index: 28°   Visibility: 10mi
Dew Point: 25°   Wind: 6mph
Humidity: 88%   Direction: 290°WNW
Pressure: 29.84"   Gusts: NA
Location:  44.967°N, 72.4837°W
Report Text: KEFK 182255Z AUTO 29005KT 10SM OVC013 M02/M04 A2984 RMK AO2 T10231040
Loading
Personal Weather Stations






























Interactive Weather Map New forecast layout! Learn more

10-Day Weather Forecast

Advertisements
Track Severe Weather on mobile